Flight Track Log - Related Links

Times and Time Zones

All times are in EST time to prevent confusion due to time zone crossing. See the TCF3578 flight status page for this flight to view local times or setup timezone preferences in your user account.

Time Position Orientation Groundspeed Altitude Reporting Facility
EST Latitude Longitude Course Direction KTS MPH feet Rate Location/Type
Thu 03:52:43 PM 38.8833 -77.0667 270° West 164 189 2,100  Level Potomac TRACON
Thu 03:53:43 PM 38.9333 -77.1167 322° Northwest 225 259 4,400 2,628 Climbing Potomac TRACON
Thu 03:54:44 PM 38.9833 -77.1667 322° Northwest 238 274 7,400 2,621 Climbing Potomac TRACON
Thu 03:56:00 PM 38.9333 -77.4894 270° West  Level FlightAware Approximate
Thu 03:56:37 PM 38.9742 -77.3083 265° West 222 255 12,000  Level Washington Center
Thu 03:57:00 PM 38.9333 -77.5875 270° West  Level FlightAware Approximate
Thu 03:57:38 PM 38.9728 -77.3911 269° West 222 255 14,900  Level Washington Center
Thu 03:58:00 PM 38.9333 -77.6855 270° West  Level FlightAware Approximate
Thu 03:58:38 PM 38.9717 -77.4792 269° West 234 269 17,400  Level Washington Center
Thu 03:59:36 PM 38.9722 -77.5728 270° West 252 290 20,000 2,420 Climbing Washington Center
Thu 04:00:37 PM 38.9703 -77.6822 269° West 270 311 22,200 2,115 Climbing Washington Center
Thu 04:01:38 PM 38.9667 -77.7703 267° West 275 316 24,300 1,884 Climbing Washington Center
Thu 04:02:38 PM 38.9667 -77.8822 270° West 287 330 26,000 1,750 Climbing Washington Center
Thu 04:03:38 PM 38.9625 -77.9889 267° West 293 337 27,800 1,513 Climbing Washington Center
Thu 04:04:37 PM 38.9625 -78.0958 270° West 298 343 29,000 1,059 Climbing Washington Center
Thu 04:05:37 PM 38.9581 -78.2050 267° West 304 350 29,900 1,091 Climbing Washington Center
Thu 04:06:38 PM 38.9658 -78.3175 275° West 310 357 31,200 1,160 Climbing Washington Center
Thu 04:07:36 PM 38.9736 -78.4300 275° West 316 364 32,200 915 Climbing Washington Center
Thu 04:08:36 PM 38.9814 -78.5450 275° West 316 364 33,000 843 Climbing Washington Center
Thu 04:09:37 PM 38.9889 -78.6603 275° West 322 371 33,900 595 Climbing Washington Center
Thu 04:10:37 PM 38.9964 -78.7781 275° West 328 377 34,200 545 Climbing Washington Center
Thu 04:11:38 PM 39.0036 -78.8906 275° West 333 383 35,000 403 Climbing Washington Center
Thu 04:12:36 PM 39.0108 -79.0083 275° West 333 383 35,000  Level Washington Center
Thu 04:13:36 PM 39.0181 -79.1208 275° West 327 376 35,000  Level Washington Center
Thu 04:14:37 PM 39.0228 -79.2389 273° West 332 382 35,000  Level Washington Center
Thu 04:15:37 PM 39.0317 -79.3567 276° West 332 382 35,000  Level Washington Center
Thu 04:16:37 PM 39.0406 -79.4722 276° West 332 382 35,000  Level Washington Center
Thu 04:17:38 PM 39.0492 -79.5928 275° West 332 382 35,000  Level Washington Center
Thu 04:18:36 PM 39.0575 -79.7111 275° West 332 382 35,000  Level Washington Center
Thu 04:19:36 PM 39.0661 -79.8239 276° West 332 382 35,000  Level Washington Center
Thu 04:20:37 PM 39.0725 -79.9364 274° West 332 382 35,000  Level Washington Center
Thu 04:21:53 PM 39.0753 -80.0775 271° West 325 374 35,000  Level Indianapolis Center
Thu 04:22:55 PM 39.0811 -80.2039 273° West 325 374 35,000 194 Level Indianapolis Center
Thu 04:23:57 PM 39.0881 -80.3189 274° West 324 373 35,400 435 Climbing Indianapolis Center
Thu 04:24:59 PM 39.0936 -80.4361 274° West 324 373 35,900 290 Climbing Indianapolis Center
Thu 04:26:01 PM 39.1011 -80.5578 275° West 334 384 36,000 48 Climbing Indianapolis Center
Thu 04:27:03 PM 39.1078 -80.6825 274° West 343 395 36,000  Level Indianapolis Center
Thu 04:28:05 PM 39.1161 -80.8053 275° West 343 395 36,000  Level Indianapolis Center
Thu 04:29:07 PM 39.1769 -80.9381 301° West 360 414 36,000  Level Indianapolis Center
Thu 04:30:09 PM 39.2264 -81.0433 301° West 352 405 36,000  Level Indianapolis Center
Thu 04:31:11 PM 39.2739 -81.1514 300° West 349 402 36,000  Level Indianapolis Center
Thu 04:32:14 PM 39.3233 -81.2594 301° West 349 402 36,000  Level Indianapolis Center
Thu 04:33:16 PM 39.3719 -81.3692 300° West 350 403 36,000  Level Indianapolis Center
Thu 04:34:18 PM 39.4206 -81.4764 300° West 350 403 36,000  Level Indianapolis Center
Thu 04:35:20 PM 39.4769 -81.6069 299° West 349 402 36,000  Level Indianapolis Center
Thu 04:36:22 PM 39.5242 -81.7119 300° West 344 396 36,000  Level Indianapolis Center
Thu 04:37:24 PM 39.5714 -81.8181 300° West 341 392 36,000  Level Indianapolis Center
Thu 04:38:26 PM 39.6186 -81.9250 300° West 341 392 36,000  Level Indianapolis Center
Thu 04:39:28 PM 39.6653 -82.0319 300° West 341 392 36,000  Level Indianapolis Center
Thu 04:40:30 PM 39.7144 -82.1431 300° West 341 392 36,000  Level Indianapolis Center
Thu 04:41:32 PM 39.7617 -82.2503 300° West 341 392 36,000  Level Indianapolis Center
Thu 04:42:34 PM 39.8183 -82.3792 300° West 341 392 36,000  Level Indianapolis Center
Thu 04:43:37 PM 39.8628 -82.4861 298° West 341 392 36,000  Level Indianapolis Center
Thu 04:44:39 PM 39.9097 -82.5956 299° West 342 394 36,000  Level Indianapolis Center
Thu 04:45:41 PM 39.9561 -82.7036 299° West 342 394 36,000  Level Indianapolis Center
Thu 04:46:43 PM 40.0033 -82.8114 300° West 342 394 36,000  Level Indianapolis Center
Thu 04:47:45 PM 40.0575 -82.9408 299° West 343 395 36,000  Level Indianapolis Center
Thu 04:48:47 PM 40.1039 -83.0489 299° West 343 395 36,000  Level Indianapolis Center
Thu 04:49:49 PM 40.1494 -83.1578 299° West 343 395 36,000  Level Indianapolis Center
Thu 04:50:51 PM 40.1953 -83.2661 299° West 343 395 36,000  Level Indianapolis Center
Thu 04:51:53 PM 40.2414 -83.3744 299° West 343 395 36,000  Level Indianapolis Center
Thu 04:52:55 PM 40.2953 -83.5056 298° West 343 395 36,000  Level Indianapolis Center
Thu 04:53:58 PM 40.3408 -83.6153 299° West 343 395 36,000  Level Indianapolis Center
Thu 04:55:00 PM 40.3875 -83.7256 299° West 345 397 36,000  Level Indianapolis Center
Thu 04:56:02 PM 40.4331 -83.8367 298° West 345 397 36,000  Level Indianapolis Center
Thu 04:57:04 PM 40.4783 -83.9478 298° West 345 397 36,000  Level Indianapolis Center
Thu 04:58:06 PM 40.5322 -84.0797 298° West 345 397 36,000  Level Indianapolis Center
Thu 04:59:08 PM 40.5781 -84.1903 299° West 345 397 36,000 -194 Level Indianapolis Center
Thu 05:00:10 PM 40.6233 -84.3019 298° West 345 397 35,600 -484 Descending Indianapolis Center
Thu 05:01:12 PM 40.6675 -84.4122 298° West 345 397 35,000 -532 Descending Indianapolis Center
Thu 05:02:14 PM 40.7114 -84.5169 299° West 334 384 34,500 -484 Descending Indianapolis Center
Thu 05:03:16 PM 40.7522 -84.6197 298° West 323 372 34,000 -270 Descending Indianapolis Center
Thu 05:04:05 PM 40.7903 -84.7142 298° West 322 371 34,000  Level Chicago Center
Thu 05:05:07 PM 40.8317 -84.8217 297° West 325 374 34,000 -290 Level Chicago Center
Thu 05:06:09 PM 40.8719 -84.9286 297° West 326 375 33,400 -677 Descending Chicago Center
Thu 05:07:11 PM 40.9136 -85.0367 297° West 328 377 32,600 -871 Descending Chicago Center
Thu 05:08:13 PM 40.9631 -85.1700 296° West 334 384 31,600 -919 Descending Chicago Center
Thu 05:09:15 PM 41.0044 -85.2811 296° West 335 386 30,700 -864 Descending Chicago Center
Thu 05:10:18 PM 41.0467 -85.3928 297° West 338 389 29,800 -960 Descending Chicago Center
Thu 05:11:20 PM 41.0889 -85.5056 296° West 342 394 28,700 -1,065 Descending Chicago Center
Thu 05:12:22 PM 41.1294 -85.6172 296° West 337 388 27,600 -1,016 Descending Chicago Center
Thu 05:13:24 PM 41.1703 -85.7275 296° West 332 382 26,600 -1,113 Descending Chicago Center
Thu 05:14:26 PM 41.2172 -85.8553 296° West 321 369 25,300 -968 Descending Chicago Center
Thu 05:15:28 PM 41.2603 -85.9592 299° West 321 369 24,600 -1,113 Descending Chicago Center
Thu 05:16:30 PM 41.3092 -86.0564 304° West 316 364 23,000 -1,548 Descending Chicago Center
Thu 05:17:32 PM 41.3542 -86.1533 302° West 309 356 21,400 -1,548 Descending Chicago Center
Thu 05:18:34 PM 41.3983 -86.2456 303° West 297 342 19,800 -1,440 Descending Chicago Center
Thu 05:19:37 PM 41.4411 -86.3356 302° West 289 333 18,400 -1,440 Descending Chicago Center
Thu 05:20:39 PM 41.4911 -86.4425 302° West 283 326 16,800 -1,452 Descending Chicago Center
Thu 05:21:41 PM 41.5322 -86.5294 302° West 278 320 15,400 -1,355 Descending Chicago Center
Thu 05:22:43 PM 41.5728 -86.6158 302° West 275 316 14,000 -1,452 Descending Chicago Center
Thu 05:23:45 PM 41.6197 -86.7164 302° West 286 329 12,400 -968 Descending Chicago Center
Thu 05:24:47 PM 41.6769 -86.7925 315° West 293 337 12,000 -194 Descending Chicago Center
Thu 05:25:49 PM 41.7686 -86.8094 352° North 309 356 12,000  Level Chicago Center
Thu 05:26:51 PM 41.8467 -86.8469 340° North 311 358 12,000 -339 Level Chicago Center
Thu 05:27:53 PM 41.8803 -86.9425 295° West 288 331 11,300 -871 Descending Chicago Center
Thu 05:28:55 PM 41.9164 -87.0478 295° West 292 336 10,200 -624 Descending Chicago Center
Thu 05:29:58 PM 41.9503 -87.1458 295° West 292 336 10,000 -96 Descending Chicago Center
Thu 05:31:00 PM 41.9800 -87.2558 290° West 292 336 10,000  Level Chicago Center
Thu 05:32:02 PM 41.9828 -87.3636 272° West 290 334 10,000 -919 Level Chicago Center
Thu 05:33:04 PM 41.9822 -87.4592 270° West 240 276 8,100 -1,790 Descending Chicago Center
Thu 05:34:06 PM 41.9822 -87.5519 270° West 248 285 6,300 -1,694 Descending Chicago Center
Thu 05:35:08 PM 41.9833 -87.6506 271° West 247 284 4,600 -1,500 Descending Chicago Center
Thu 05:36:10 PM 41.9831 -87.7344 270° West 230 265 3,200 -1,258 Descending Chicago Center
Thu 05:37:12 PM 41.9833 -87.8089 270° West 189 217 2,000 -919 Descending Chicago Center
Thu 05:38:14 PM 41.9831 -87.8561 270° West 135 155 1,300 -576 Descending Chicago Center
Thu 05:39:17 PM 41.9828 -87.8961 269° West 126 145 800 -476 Descending Chicago Center
Thu 05:41:00 PM 41.9793 -87.9074 270° West  Level Estimated

Login

Don't have an account? Register now (free) for customized features, flight alerts, and more!